sensor_id;sensor_type;location;lat;lon;timestamp;P1;durP1;ratioP1;P2;durP2;ratioP2
78820;SDS011;68171;13.882;99.692;2024-03-02T00:00:16;47.03;;;24.20;;
78820;SDS011;68171;13.882;99.692;2024-03-02T00:01:23;54.35;;;25.77;;
78820;SDS011;68171;13.882;99.692;2024-03-02T00:02:30;45.03;;;21.47;;
78820;SDS011;68171;13.882;99.692;2024-03-02T00:03:36;46.85;;;23.17;;
78820;SDS011;68171;13.882;99.692;2024-03-02T00:04:44;35.42;;;20.88;;
78820;SDS011;68171;13.882;99.692;2024-03-02T00:05:51;43.05;;;21.88;;
78820;SDS011;68171;13.882;99.692;2024-03-02T00:06:58;38.40;;;21.50;;
78820;SDS011;68171;13.882;99.692;2024-03-02T00:08:04;37.30;;;22.08;;
78820;SDS011;68171;13.882;99.692;2024-03-02T00:09:11;43.00;;;24.98;;
78820;SDS011;68171;13.882;99.692;2024-03-02T00:10:16;55.72;;;28.80;;
78820;SDS011;68171;13.882;99.692;2024-03-02T00:11:26;40.90;;;23.98;;
78820;SDS011;68171;13.882;99.692;2024-03-02T00:12:32;44.63;;;27.83;;
78820;SDS011;68171;13.882;99.692;2024-03-02T00:13:39;44.73;;;26.87;;
78820;SDS011;68171;13.882;99.692;2024-03-02T00:14:44;44.88;;;27.95;;
78820;SDS011;68171;13.882;99.692;2024-03-02T00:15:51;36.92;;;23.65;;
78820;SDS011;68171;13.882;99.692;2024-03-02T00:16:59;33.22;;;22.17;;
78820;SDS011;68171;13.882;99.692;2024-03-02T00:18:04;28.02;;;17.38;;
78820;SDS011;68171;13.882;99.692;2024-03-02T00:19:10;23.75;;;16.20;;
78820;SDS011;68171;13.882;99.692;2024-03-02T00:20:17;22.23;;;15.23;;
78820;SDS011;68171;13.882;99.692;2024-03-02T00:21:26;19.58;;;15.00;;
78820;SDS011;68171;13.882;99.692;2024-03-02T00:22:35;20.20;;;14.98;;
78820;SDS011;68171;13.882;99.692;2024-03-02T00:23:41;17.95;;;14.35;;
78820;SDS011;68171;13.882;99.692;2024-03-02T00:24:47;17.50;;;14.10;;
78820;SDS011;68171;13.882;99.692;2024-03-02T00:25:55;23.17;;;15.98;;
78820;SDS011;68171;13.882;99.692;2024-03-02T00:27:02;30.60;;;18.27;;
78820;SDS011;68171;13.882;99.692;2024-03-02T00:28:13;23.10;;;16.85;;
78820;SDS011;68171;13.882;99.692;2024-03-02T00:29:21;24.45;;;18.45;;
78820;SDS011;68171;13.882;99.692;2024-03-02T00:30:38;25.17;;;17.75;;
78820;SDS011;68171;13.882;99.692;2024-03-02T00:31:58;28.17;;;20.10;;
78820;SDS011;68171;13.882;99.692;2024-03-02T00:33:07;22.75;;;17.75;;
78820;SDS011;68171;13.882;99.692;2024-03-02T00:34:12;28.25;;;19.42;;
78820;SDS011;68171;13.882;99.692;2024-03-02T00:35:20;24.48;;;17.42;;
78820;SDS011;68171;13.882;99.692;2024-03-02T00:36:29;29.47;;;16.40;;
78820;SDS011;68171;13.882;99.692;2024-03-02T00:37:36;21.83;;;16.13;;
78820;SDS011;68171;13.882;99.692;2024-03-02T00:38:44;21.77;;;16.15;;
78820;SDS011;68171;13.882;99.692;2024-03-02T00:39:50;20.65;;;16.55;;
78820;SDS011;68171;13.882;99.692;2024-03-02T00:40:57;21.63;;;16.25;;
78820;SDS011;68171;13.882;99.692;2024-03-02T00:42:03;21.98;;;17.23;;
78820;SDS011;68171;13.882;99.692;2024-03-02T00:43:11;26.02;;;16.42;;
78820;SDS011;68171;13.882;99.692;2024-03-02T00:44:37;26.20;;;19.58;;
78820;SDS011;68171;13.882;99.692;2024-03-02T00:45:44;29.50;;;17.70;;
78820;SDS011;68171;13.882;99.692;2024-03-02T00:46:50;22.95;;;18.55;;
78820;SDS011;68171;13.882;99.692;2024-03-02T00:47:56;27.30;;;20.00;;
78820;SDS011;68171;13.882;99.692;2024-03-02T00:49:02;27.60;;;22.75;;
78820;SDS011;68171;13.882;99.692;2024-03-02T00:50:11;28.65;;;22.30;;
78820;SDS011;68171;13.882;99.692;2024-03-02T00:51:33;25.20;;;21.65;;
78820;SDS011;68171;13.882;99.692;2024-03-02T00:52:40;29.38;;;23.42;;
78820;SDS011;68171;13.882;99.692;2024-03-02T00:53:46;29.58;;;23.33;;
78820;SDS011;68171;13.882;99.692;2024-03-02T00:54:52;25.67;;;22.90;;
78820;SDS011;68171;13.882;99.692;2024-03-02T00:56:02;27.05;;;24.15;;
78820;SDS011;68171;13.882;99.692;2024-03-02T00:57:09;26.48;;;22.13;;
78820;SDS011;68171;13.882;99.692;2024-03-02T00:58:15;29.88;;;24.48;;
78820;SDS011;68171;13.882;99.692;2024-03-02T00:59:22;26.23;;;21.70;;
78820;SDS011;68171;13.882;99.692;2024-03-02T01:00:27;25.95;;;21.95;;
78820;SDS011;68171;13.882;99.692;2024-03-02T01:01:34;26.70;;;20.98;;
78820;SDS011;68171;13.882;99.692;2024-03-02T01:02:39;30.15;;;22.42;;
78820;SDS011;68171;13.882;99.692;2024-03-02T01:03:47;29.98;;;23.20;;
78820;SDS011;68171;13.882;99.692;2024-03-02T01:04:53;29.25;;;22.20;;
78820;SDS011;68171;13.882;99.692;2024-03-02T01:06:00;26.85;;;21.48;;
78820;SDS011;68171;13.882;99.692;2024-03-02T01:07:07;27.73;;;23.10;;
78820;SDS011;68171;13.882;99.692;2024-03-02T01:08:14;24.08;;;20.65;;
78820;SDS011;68171;13.882;99.692;2024-03-02T01:09:19;26.13;;;20.00;;
78820;SDS011;68171;13.882;99.692;2024-03-02T01:10:26;23.20;;;18.53;;
78820;SDS011;68171;13.882;99.692;2024-03-02T01:11:31;24.48;;;19.10;;
78820;SDS011;68171;13.882;99.692;2024-03-02T01:12:38;22.52;;;18.20;;
78820;SDS011;68171;13.882;99.692;2024-03-02T01:13:43;24.85;;;16.17;;
78820;SDS011;68171;13.882;99.692;2024-03-02T01:14:50;23.92;;;17.58;;
78820;SDS011;68171;13.882;99.692;2024-03-02T01:15:55;21.48;;;17.15;;
78820;SDS011;68171;13.882;99.692;2024-03-02T01:17:02;22.27;;;17.60;;
